sensor_id;sensor_type;location;lat;lon;timestamp;pressure;altitude;pressure_sealevel;temperature;humidity
47809;BME280;33573;38.790;-77.084;2023-06-22T00:02:19;101665.64;;;23.65;43.67
47809;BME280;33573;38.790;-77.084;2023-06-22T00:04:44;101667.01;;;23.71;43.85
47809;BME280;33573;38.790;-77.084;2023-06-22T00:07:09;101666.01;;;23.66;44.10
47809;BME280;33573;38.790;-77.084;2023-06-22T00:09:35;101665.09;;;23.76;43.96
47809;BME280;33573;38.790;-77.084;2023-06-22T00:12:00;101668.46;;;23.17;44.55
47809;BME280;33573;38.790;-77.084;2023-06-22T00:14:25;101664.24;;;23.32;44.16
47809;BME280;33573;38.790;-77.084;2023-06-22T00:16:51;101660.65;;;23.40;44.12
47809;BME280;33573;38.790;-77.084;2023-06-22T00:19:16;101656.27;;;23.61;44.07
47809;BME280;33573;38.790;-77.084;2023-06-22T00:21:41;101657.13;;;23.29;44.47
47809;BME280;33573;38.790;-77.084;2023-06-22T00:24:07;101658.62;;;23.30;44.44
47809;BME280;33573;38.790;-77.084;2023-06-22T00:26:32;101665.76;;;23.15;44.36
47809;BME280;33573;38.790;-77.084;2023-06-22T00:28:58;101665.87;;;23.35;44.25
47809;BME280;33573;38.790;-77.084;2023-06-22T00:31:23;101662.06;;;23.18;44.50
47809;BME280;33573;38.790;-77.084;2023-06-22T00:33:48;101659.74;;;23.15;44.52
47809;BME280;33573;38.790;-77.084;2023-06-22T00:36:14;101654.11;;;23.57;44.09
47809;BME280;33573;38.790;-77.084;2023-06-22T00:38:39;101655.79;;;23.17;44.50
47809;BME280;33573;38.790;-77.084;2023-06-22T00:41:05;101656.40;;;23.08;44.38
47809;BME280;33573;38.790;-77.084;2023-06-22T00:43:30;101662.20;;;22.95;44.48
47809;BME280;33573;38.790;-77.084;2023-06-22T00:45:56;101668.24;;;22.95;44.42
47809;BME280;33573;38.790;-77.084;2023-06-22T00:48:21;101658.57;;;23.33;43.85
47809;BME280;33573;38.790;-77.084;2023-06-22T00:50:46;101661.77;;;23.08;44.03
47809;BME280;33573;38.790;-77.084;2023-06-22T00:53:12;101657.64;;;22.86;44.73
47809;BME280;33573;38.790;-77.084;2023-06-22T00:55:41;101662.07;;;23.40;44.15
47809;BME280;33573;38.790;-77.084;2023-06-22T00:58:02;101664.71;;;23.18;44.24
47809;BME280;33573;38.790;-77.084;2023-06-22T01:00:28;101661.10;;;23.51;43.83
47809;BME280;33573;38.790;-77.084;2023-06-22T01:02:53;101660.87;;;23.09;44.07
47809;BME280;33573;38.790;-77.084;2023-06-22T01:05:19;101665.35;;;22.96;44.24
47809;BME280;33573;38.790;-77.084;2023-06-22T01:07:53;101663.46;;;23.26;44.07
47809;BME280;33573;38.790;-77.084;2023-06-22T01:10:15;101659.41;;;22.66;44.84
47809;BME280;33573;38.790;-77.084;2023-06-22T01:12:40;101661.15;;;23.08;44.31
47809;BME280;33573;38.790;-77.084;2023-06-22T01:15:04;101657.66;;;23.29;43.98
47809;BME280;33573;38.790;-77.084;2023-06-22T01:17:27;101663.20;;;22.54;44.75
47809;BME280;33573;38.790;-77.084;2023-06-22T01:19:54;101658.91;;;22.97;44.35
47809;BME280;33573;38.790;-77.084;2023-06-22T01:22:17;101663.25;;;22.92;44.42
47809;BME280;33573;38.790;-77.084;2023-06-22T01:24:51;101660.39;;;23.35;43.93
47809;BME280;33573;38.790;-77.084;2023-06-22T01:27:17;101666.71;;;23.13;44.16
47809;BME280;33573;38.790;-77.084;2023-06-22T01:29:33;101664.27;;;23.69;42.92
47809;BME280;33573;38.790;-77.084;2023-06-22T01:31:59;101675.46;;;22.90;44.26
47809;BME280;33573;38.790;-77.084;2023-06-22T01:34:24;101675.97;;;23.07;43.94
47809;BME280;33573;38.790;-77.084;2023-06-22T01:36:49;101674.17;;;22.92;43.95
47809;BME280;33573;38.790;-77.084;2023-06-22T01:39:15;101677.45;;;23.22;43.76
47809;BME280;33573;38.790;-77.084;2023-06-22T01:41:41;101673.37;;;22.94;44.30
47809;BME280;33573;38.790;-77.084;2023-06-22T01:44:06;101675.79;;;22.92;43.84
47809;BME280;33573;38.790;-77.084;2023-06-22T01:46:31;101678.82;;;23.13;43.56
47809;BME280;33573;38.790;-77.084;2023-06-22T01:48:56;101678.67;;;22.60;44.28
47809;BME280;33573;38.790;-77.084;2023-06-22T01:51:21;101676.04;;;23.03;43.66
47809;BME280;33573;38.790;-77.084;2023-06-22T01:53:47;101672.95;;;23.42;43.46
47809;BME280;33573;38.790;-77.084;2023-06-22T01:56:12;101676.06;;;22.92;43.91
47809;BME280;33573;38.790;-77.084;2023-06-22T01:58:44;101669.38;;;22.87;44.00
47809;BME280;33573;38.790;-77.084;2023-06-22T02:01:10;101667.85;;;23.07;43.83
47809;BME280;33573;38.790;-77.084;2023-06-22T02:03:32;101675.24;;;23.28;43.52
47809;BME280;33573;38.790;-77.084;2023-06-22T02:06:00;101680.98;;;23.26;43.58
47809;BME280;33573;38.790;-77.084;2023-06-22T02:08:21;101680.53;;;23.14;43.66
47809;BME280;33573;38.790;-77.084;2023-06-22T02:10:45;101685.89;;;22.97;43.63
47809;BME280;33573;38.790;-77.084;2023-06-22T02:13:10;101688.03;;;22.72;43.84
47809;BME280;33573;38.790;-77.084;2023-06-22T02:15:35;101688.20;;;23.11;43.70
47809;BME280;33573;38.790;-77.084;2023-06-22T02:18:01;101684.60;;;23.01;43.67
47809;BME280;33573;38.790;-77.084;2023-06-22T02:20:26;101688.18;;;22.76;44.01
47809;BME280;33573;38.790;-77.084;2023-06-22T02:22:51;101680.32;;;22.78;43.92
47809;BME280;33573;38.790;-77.084;2023-06-22T02:25:17;101678.50;;;23.25;43.47
47809;BME280;33573;38.790;-77.084;2023-06-22T02:27:42;101675.40;;;22.89;43.80
47809;BME280;33573;38.790;-77.084;2023-06-22T02:30:08;101677.00;;;23.25;43.29
47809;BME280;33573;38.790;-77.084;2023-06-22T02:32:33;101675.45;;;22.94;43.60
47809;BME280;33573;38.790;-77.084;2023-06-22T02:34:58;101673.75;;;22.96;43.51
47809;BME280;33573;38.790;-77.084;2023-06-22T02:37:24;101668.45;;;22.81;43.32
47809;BME280;33573;38.790;-77.084;2023-06-22T02:39:49;101675.93;;;23.28;43.11
47809;BME280;33573;38.790;-77.084;2023-06-22T02:42:14;101676.24;;;22.98;43.32
47809;BME280;33573;38.790;-77.084;2023-06-22T02:44:40;101674.77;;;22.81;43.42
47809;BME280;33573;38.790;-77.084;2023-06-22T02:47:05;101675.03;;;22.57;43.98
47809;BME280;33573;38.790;-77.084;2023-06-22T02:49:31;101673.68;;;22.92;43.33
47809;BME280;33573;38.790;-77.084;2023-06-22T02:51:58;101673.17;;;22.97;43.25
47809;BME280;33573;38.790;-77.084;2023-06-22T02:54:21;101676.22;;;22.86;43.24
47809;BME280;33573;38.790;-77.084;2023-06-22T02:56:47;101678.20;;;22.92;43.36
47809;BME280;33573;38.790;-77.084;2023-06-22T02:59:12;101674.27;;;22.77;43.83
47809;BME280;33573;38.790;-77.084;2023-06-22T03:01:38;101668.27;;;23.10;43.17
47809;BME280;33573;38.790;-77.084;2023-06-22T03:04:03;101662.45;;;22.57;43.25
47809;BME280;33573;38.790;-77.084;2023-06-22T03:06:28;101667.43;;;22.62;43.16
47809;BME280;33573;38.790;-77.084;2023-06-22T03:08:59;101665.44;;;22.69;43.47
47809;BME280;33573;38.790;-77.084;2023-06-22T03:11:19;101669.48;;;22.97;43.13
47809;BME280;33573;38.790;-77.084;2023-06-22T03:13:44;101673.73;;;22.85;43.08
47809;BME280;33573;38.790;-77.084;2023-06-22T03:16:15;101669.70;;;23.06;42.98
47809;BME280;33573;38.790;-77.084;2023-06-22T03:18:35;101667.61;;;22.51;43.69
47809;BME280;33573;38.790;-77.084;2023-06-22T03:21:00;101669.41;;;22.73;43.41
47809;BME280;33573;38.790;-77.084;2023-06-22T03:23:26;101663.51;;;22.76;43.33
47809;BME280;33573;38.790;-77.084;2023-06-22T03:25:51;101664.43;;;22.49;43.64
47809;BME280;33573;38.790;-77.084;2023-06-22T03:28:17;101662.12;;;22.93;43.09
47809;BME280;33573;38.790;-77.084;2023-06-22T03:30:42;101662.46;;;22.48;43.78
47809;BME280;33573;38.790;-77.084;2023-06-22T03:33:07;101659.39;;;22.94;43.06
47809;BME280;33573;38.790;-77.084;2023-06-22T03:35:33;101660.76;;;22.62;43.51
47809;BME280;33573;38.790;-77.084;2023-06-22T03:37:58;101656.19;;;22.23;43.61
47809;BME280;33573;38.790;-77.084;2023-06-22T03:40:24;101661.80;;;22.57;43.66
47809;BME280;33573;38.790;-77.084;2023-06-22T03:42:49;101655.11;;;22.86;43.06
47809;BME280;33573;38.790;-77.084;2023-06-22T03:45:14;101653.46;;;22.43;43.66
47809;BME280;33573;38.790;-77.084;2023-06-22T03:47:40;101642.24;;;22.26;44.00
47809;BME280;33573;38.790;-77.084;2023-06-22T03:50:06;101643.97;;;22.02;44.28
47809;BME280;33573;38.790;-77.084;2023-06-22T03:52:31;101647.06;;;22.23;43.91
47809;BME280;33573;38.790;-77.084;2023-06-22T03:54:56;101641.20;;;23.02;43.20
47809;BME280;33573;38.790;-77.084;2023-06-22T03:57:21;101634.76;;;23.02;42.84
47809;BME280;33573;38.790;-77.084;2023-06-22T03:59:47;101629.33;;;22.48;43.57
47809;BME280;33573;38.790;-77.084;2023-06-22T04:02:12;101630.90;;;22.44;43.52
47809;BME280;33573;38.790;-77.084;2023-06-22T04:04:37;101634.70;;;22.12;43.75
47809;BME280;33573;38.790;-77.084;2023-06-22T04:07:03;101635.67;;;22.57;43.44
47809;BME280;33573;38.790;-77.084;2023-06-22T04:09:28;101635.48;;;22.58;44.06
47809;BME280;33573;38.790;-77.084;2023-06-22T04:11:54;101638.72;;;22.85;43.80
47809;BME280;33573;38.790;-77.084;2023-06-22T04:14:19;101638.39;;;22.25;43.93
47809;BME280;33573;38.790;-77.084;2023-06-22T04:16:44;101643.15;;;22.14;44.17
47809;BME280;33573;38.790;-77.084;2023-06-22T04:19:10;101636.80;;;22.33;43.85
47809;BME280;33573;38.790;-77.084;2023-06-22T04:21:35;101633.67;;;22.00;44.30
47809;BME280;33573;38.790;-77.084;2023-06-22T04:24:01;101632.27;;;22.06;44.23
47809;BME280;33573;38.790;-77.084;2023-06-22T04:26:26;101624.12;;;22.19;44.40
47809;BME280;33573;38.790;-77.084;2023-06-22T04:28:51;101614.82;;;21.88;44.50
47809;BME280;33573;38.790;-77.084;2023-06-22T04:31:17;101604.02;;;22.54;43.54
47809;BME280;33573;38.790;-77.084;2023-06-22T04:33:42;101604.06;;;22.15;44.04
47809;BME280;33573;38.790;-77.084;2023-06-22T04:36:08;101598.45;;;22.40;43.68
47809;BME280;33573;38.790;-77.084;2023-06-22T04:38:33;101602.08;;;22.34;43.70
47809;BME280;33573;38.790;-77.084;2023-06-22T04:40:58;101604.07;;;22.48;43.85
47809;BME280;33573;38.790;-77.084;2023-06-22T04:43:24;101599.00;;;22.50;43.51
47809;BME280;33573;38.790;-77.084;2023-06-22T04:45:49;101601.95;;;22.53;43.34
47809;BME280;33573;38.790;-77.084;2023-06-22T04:48:15;101601.02;;;22.39;43.63
47809;BME280;33573;38.790;-77.084;2023-06-22T04:50:40;101604.94;;;22.55;43.73
47809;BME280;33573;38.790;-77.084;2023-06-22T04:53:05;101603.76;;;22.50;43.44
47809;BME280;33573;38.790;-77.084;2023-06-22T04:55:31;101609.88;;;22.28;43.81
47809;BME280;33573;38.790;-77.084;2023-06-22T04:57:56;101604.01;;;22.29;43.88
47809;BME280;33573;38.790;-77.084;2023-06-22T05:00:21;101602.08;;;22.09;44.09
47809;BME280;33573;38.790;-77.084;2023-06-22T05:02:47;101601.80;;;22.27;44.21
47809;BME280;33573;38.790;-77.084;2023-06-22T05:05:13;101604.31;;;22.80;43.87
47809;BME280;33573;38.790;-77.084;2023-06-22T05:07:38;101604.20;;;22.30;43.88
47809;BME280;33573;38.790;-77.084;2023-06-22T05:10:04;101604.52;;;22.03;44.28
47809;BME280;33573;38.790;-77.084;2023-06-22T05:12:29;101600.39;;;21.79;44.65
47809;BME280;33573;38.790;-77.084;2023-06-22T05:14:54;101601.62;;;21.95;44.39
47809;BME280;33573;38.790;-77.084;2023-06-22T05:17:19;101597.68;;;22.07;44.24
47809;BME280;33573;38.790;-77.084;2023-06-22T05:19:45;101596.73;;;22.24;43.95
47809;BME280;33573;38.790;-77.084;2023-06-22T05:22:10;101591.71;;;21.86;44.62
47809;BME280;33573;38.790;-77.084;2023-06-22T05:24:35;101583.55;;;22.46;44.47
47809;BME280;33573;38.790;-77.084;2023-06-22T05:27:01;101579.22;;;22.00;44.47
47809;BME280;33573;38.790;-77.084;2023-06-22T05:29:31;101580.66;;;21.95;44.53
47809;BME280;33573;38.790;-77.084;2023-06-22T05:31:51;101575.82;;;22.20;44.43
47809;BME280;33573;38.790;-77.084;2023-06-22T05:34:17;101579.61;;;22.13;44.18
47809;BME280;33573;38.790;-77.084;2023-06-22T05:36:42;101574.72;;;21.72;44.92
47809;BME280;33573;38.790;-77.084;2023-06-22T05:39:11;101570.30;;;21.92;44.67
47809;BME280;33573;38.790;-77.084;2023-06-22T05:41:33;101573.28;;;22.04;44.42
47809;BME280;33573;38.790;-77.084;2023-06-22T05:43:58;101570.91;;;22.03;44.39
47809;BME280;33573;38.790;-77.084;2023-06-22T05:46:24;101572.11;;;22.11;44.63
47809;BME280;33573;38.790;-77.084;2023-06-22T05:48:49;101573.61;;;22.32;44.36
47809;BME280;33573;38.790;-77.084;2023-06-22T05:51:15;101572.65;;;22.33;43.96
47809;BME280;33573;38.790;-77.084;2023-06-22T05:53:40;101572.01;;;22.00;44.39
47809;BME280;33573;38.790;-77.084;2023-06-22T05:56:05;101569.40;;;22.24;44.44
47809;BME280;33573;38.790;-77.084;2023-06-22T05:58:31;101573.04;;;22.32;43.93
47809;BME280;33573;38.790;-77.084;2023-06-22T06:00:56;101574.24;;;21.74;44.84
47809;BME280;33573;38.790;-77.084;2023-06-22T06:03:22;101569.52;;;21.57;45.12
47809;BME280;33573;38.790;-77.084;2023-06-22T06:05:47;101569.72;;;21.92;44.67
47809;BME280;33573;38.790;-77.084;2023-06-22T06:08:12;101569.45;;;21.90;44.62
47809;BME280;33573;38.790;-77.084;2023-06-22T06:10:38;101565.59;;;21.99;44.58
47809;BME280;33573;38.790;-77.084;2023-06-22T06:13:03;101556.40;;;21.89;44.71
47809;BME280;33573;38.790;-77.084;2023-06-22T06:15:29;101557.96;;;22.05;44.90
47809;BME280;33573;38.790;-77.084;2023-06-22T06:17:54;101558.92;;;22.31;44.52
47809;BME280;33573;38.790;-77.084;2023-06-22T06:20:21;101555.96;;;22.51;44.60
47809;BME280;33573;38.790;-77.084;2023-06-22T06:22:45;101554.14;;;22.25;44.71
47809;BME280;33573;38.790;-77.084;2023-06-22T06:25:10;101552.43;;;21.78;45.50
47809;BME280;33573;38.790;-77.084;2023-06-22T06:27:35;101548.16;;;22.13;44.86
47809;BME280;33573;38.790;-77.084;2023-06-22T06:30:01;101547.21;;;22.13;44.90
47809;BME280;33573;38.790;-77.084;2023-06-22T06:32:26;101545.04;;;22.09;45.02
47809;BME280;33573;38.790;-77.084;2023-06-22T06:34:52;101542.67;;;21.78;45.11
47809;BME280;33573;38.790;-77.084;2023-06-22T06:37:17;101546.38;;;22.16;44.93
47809;BME280;33573;38.790;-77.084;2023-06-22T06:39:42;101545.62;;;21.72;45.28
47809;BME280;33573;38.790;-77.084;2023-06-22T06:42:08;101545.23;;;22.03;45.28
47809;BME280;33573;38.790;-77.084;2023-06-22T06:44:33;101547.58;;;21.92;45.22
47809;BME280;33573;38.790;-77.084;2023-06-22T06:46:58;101547.57;;;21.71;45.35
47809;BME280;33573;38.790;-77.084;2023-06-22T06:49:24;101545.27;;;22.25;45.40
47809;BME280;33573;38.790;-77.084;2023-06-22T06:51:49;101545.59;;;21.62;45.57
47809;BME280;33573;38.790;-77.084;2023-06-22T06:54:14;101541.79;;;21.95;45.52
47809;BME280;33573;38.790;-77.084;2023-06-22T06:56:40;101540.03;;;22.17;45.06
47809;BME280;33573;38.790;-77.084;2023-06-22T06:59:06;101542.55;;;22.08;45.27
47809;BME280;33573;38.790;-77.084;2023-06-22T07:01:31;101546.40;;;22.00;45.47
47809;BME280;33573;38.790;-77.084;2023-06-22T07:03:56;101543.01;;;21.72;45.54
47809;BME280;33573;38.790;-77.084;2023-06-22T07:06:21;101546.43;;;21.68;45.62
47809;BME280;33573;38.790;-77.084;2023-06-22T07:08:47;101548.81;;;21.92;45.62
47809;BME280;33573;38.790;-77.084;2023-06-22T07:11:12;101545.74;;;21.96;45.60
47809;BME280;33573;38.790;-77.084;2023-06-22T07:13:38;101537.61;;;21.56;45.74
47809;BME280;33573;38.790;-77.084;2023-06-22T07:16:03;101529.44;;;22.13;45.71
47809;BME280;33573;38.790;-77.084;2023-06-22T07:18:28;101528.25;;;22.26;45.47
47809;BME280;33573;38.790;-77.084;2023-06-22T07:20:54;101527.47;;;22.02;45.53
47809;BME280;33573;38.790;-77.084;2023-06-22T07:23:19;101525.68;;;21.64;45.82
47809;BME280;33573;38.790;-77.084;2023-06-22T07:25:45;101520.88;;;21.58;45.96
47809;BME280;33573;38.790;-77.084;2023-06-22T07:28:10;101517.51;;;21.93;45.63
47809;BME280;33573;38.790;-77.084;2023-06-22T07:30:35;101515.23;;;21.67;45.77
47809;BME280;33573;38.790;-77.084;2023-06-22T07:33:01;101513.65;;;21.41;46.09
47809;BME280;33573;38.790;-77.084;2023-06-22T07:35:26;101516.63;;;21.66;45.76
47809;BME280;33573;38.790;-77.084;2023-06-22T07:37:52;101517.25;;;21.55;45.95
47809;BME280;33573;38.790;-77.084;2023-06-22T07:40:17;101520.26;;;22.13;45.81
47809;BME280;33573;38.790;-77.084;2023-06-22T07:42:42;101522.62;;;22.00;45.61
47809;BME280;33573;38.790;-77.084;2023-06-22T07:45:08;101526.65;;;21.53;45.95
47809;BME280;33573;38.790;-77.084;2023-06-22T07:47:33;101529.15;;;21.92;45.21
47809;BME280;33573;38.790;-77.084;2023-06-22T07:49:59;101526.82;;;21.74;45.57
47809;BME280;33573;38.790;-77.084;2023-06-22T07:52:24;101530.07;;;21.76;45.43
47809;BME280;33573;38.790;-77.084;2023-06-22T07:54:49;101531.26;;;21.90;45.78
47809;BME280;33573;38.790;-77.084;2023-06-22T07:57:15;101536.18;;;21.85;45.92
47809;BME280;33573;38.790;-77.084;2023-06-22T07:59:40;101536.67;;;21.85;45.83
47809;BME280;33573;38.790;-77.084;2023-06-22T08:02:06;101548.37;;;21.86;45.86
47809;BME280;33573;38.790;-77.084;2023-06-22T08:04:31;101548.92;;;21.62;45.76
47809;BME280;33573;38.790;-77.084;2023-06-22T08:06:56;101545.53;;;21.84;45.45
47809;BME280;33573;38.790;-77.084;2023-06-22T08:09:29;101551.03;;;21.97;45.67
47809;BME280;33573;38.790;-77.084;2023-06-22T08:11:47;101546.18;;;21.56;46.01
47809;BME280;33573;38.790;-77.084;2023-06-22T08:14:12;101550.26;;;21.52;46.14
47809;BME280;33573;38.790;-77.084;2023-06-22T08:16:38;101549.32;;;21.85;45.96
47809;BME280;33573;38.790;-77.084;2023-06-22T08:19:03;101548.77;;;21.99;45.62
47809;BME280;33573;38.790;-77.084;2023-06-22T08:21:29;101548.88;;;21.93;45.31
47809;BME280;33573;38.790;-77.084;2023-06-22T08:23:54;101544.86;;;22.16;45.82
47809;BME280;33573;38.790;-77.084;2023-06-22T08:26:20;101536.68;;;21.96;45.73
47809;BME280;33573;38.790;-77.084;2023-06-22T08:28:45;101537.14;;;21.68;46.04
47809;BME280;33573;38.790;-77.084;2023-06-22T08:31:10;101539.94;;;21.64;46.08
47809;BME280;33573;38.790;-77.084;2023-06-22T08:33:36;101541.57;;;21.43;46.33
47809;BME280;33573;38.790;-77.084;2023-06-22T08:36:01;101538.96;;;22.09;46.06
47809;BME280;33573;38.790;-77.084;2023-06-22T08:38:26;101537.32;;;22.13;45.57
47809;BME280;33573;38.790;-77.084;2023-06-22T08:40:52;101538.19;;;21.63;46.17
47809;BME280;33573;38.790;-77.084;2023-06-22T08:43:17;101537.92;;;21.82;46.26
47809;BME280;33573;38.790;-77.084;2023-06-22T08:45:42;101534.19;;;21.79;46.36
47809;BME280;33573;38.790;-77.084;2023-06-22T08:48:08;101534.98;;;21.62;46.31
47809;BME280;33573;38.790;-77.084;2023-06-22T08:50:33;101536.86;;;21.73;46.19
47809;BME280;33573;38.790;-77.084;2023-06-22T08:52:59;101535.70;;;22.25;45.91
47809;BME280;33573;38.790;-77.084;2023-06-22T08:55:24;101535.61;;;21.89;46.29
47809;BME280;33573;38.790;-77.084;2023-06-22T08:57:49;101535.15;;;22.08;46.29
47809;BME280;33573;38.790;-77.084;2023-06-22T09:00:16;101533.28;;;21.89;46.41
47809;BME280;33573;38.790;-77.084;2023-06-22T09:02:40;101535.55;;;21.75;46.13
47809;BME280;33573;38.790;-77.084;2023-06-22T09:05:06;101540.93;;;21.70;46.59
47809;BME280;33573;38.790;-77.084;2023-06-22T09:07:31;101543.72;;;22.05;46.13
47809;BME280;33573;38.790;-77.084;2023-06-22T09:09:56;101533.12;;;21.75;46.14
47809;BME280;33573;38.790;-77.084;2023-06-22T09:12:22;101535.99;;;22.19;46.11
47809;BME280;33573;38.790;-77.084;2023-06-22T09:14:47;101537.44;;;21.88;45.86
47809;BME280;33573;38.790;-77.084;2023-06-22T09:17:13;101543.23;;;22.13;46.35
47809;BME280;33573;38.790;-77.084;2023-06-22T09:19:38;101545.99;;;22.01;46.50
47809;BME280;33573;38.790;-77.084;2023-06-22T09:22:03;101547.89;;;21.98;46.31
47809;BME280;33573;38.790;-77.084;2023-06-22T09:24:28;101548.31;;;22.35;45.88
47809;BME280;33573;38.790;-77.084;2023-06-22T09:26:54;101551.68;;;21.67;46.78
47809;BME280;33573;38.790;-77.084;2023-06-22T09:29:19;101552.30;;;22.12;46.42
47809;BME280;33573;38.790;-77.084;2023-06-22T09:31:44;101555.70;;;21.80;46.07
47809;BME280;33573;38.790;-77.084;2023-06-22T09:34:10;101556.31;;;21.86;46.41
47809;BME280;33573;38.790;-77.084;2023-06-22T09:36:35;101557.99;;;21.72;46.04
47809;BME280;33573;38.790;-77.084;2023-06-22T09:39:01;101557.47;;;21.74;46.03
47809;BME280;33573;38.790;-77.084;2023-06-22T09:41:26;101559.08;;;21.66;46.42
47809;BME280;33573;38.790;-77.084;2023-06-22T09:43:51;101566.39;;;21.69;46.27
47809;BME280;33573;38.790;-77.084;2023-06-22T09:46:17;101567.22;;;21.66;46.34
47809;BME280;33573;38.790;-77.084;2023-06-22T09:48:42;101570.43;;;21.81;46.51
47809;BME280;33573;38.790;-77.084;2023-06-22T09:51:08;101578.65;;;21.78;46.29
47809;BME280;33573;38.790;-77.084;2023-06-22T09:53:33;101575.45;;;21.78;46.28
47809;BME280;33573;38.790;-77.084;2023-06-22T09:55:58;101583.12;;;21.61;46.64
47809;BME280;33573;38.790;-77.084;2023-06-22T09:58:24;101586.45;;;21.94;46.47
47809;BME280;33573;38.790;-77.084;2023-06-22T10:00:49;101590.74;;;21.71;46.67
47809;BME280;33573;38.790;-77.084;2023-06-22T10:03:15;101588.38;;;21.96;46.40
47809;BME280;33573;38.790;-77.084;2023-06-22T10:05:40;101589.79;;;21.86;46.62
47809;BME280;33573;38.790;-77.084;2023-06-22T10:08:05;101588.77;;;21.73;46.83
47809;BME280;33573;38.790;-77.084;2023-06-22T10:10:31;101590.97;;;21.79;46.76
47809;BME280;33573;38.790;-77.084;2023-06-22T10:12:57;101595.11;;;21.24;47.04
47809;BME280;33573;38.790;-77.084;2023-06-22T10:15:22;101592.55;;;22.14;46.32
47809;BME280;33573;38.790;-77.084;2023-06-22T10:17:47;101592.90;;;21.94;46.08
47809;BME280;33573;38.790;-77.084;2023-06-22T10:20:12;101597.23;;;21.96;46.22
47809;BME280;33573;38.790;-77.084;2023-06-22T10:22:38;101599.22;;;21.92;45.93
47809;BME280;33573;38.790;-77.084;2023-06-22T10:25:04;101605.14;;;22.22;46.07
47809;BME280;33573;38.790;-77.084;2023-06-22T10:27:28;101600.73;;;21.57;46.62
47809;BME280;33573;38.790;-77.084;2023-06-22T10:29:54;101602.13;;;21.93;46.30
47809;BME280;33573;38.790;-77.084;2023-06-22T10:32:19;101602.78;;;22.03;46.62
47809;BME280;33573;38.790;-77.084;2023-06-22T10:34:45;101601.83;;;21.66;46.23
47809;BME280;33573;38.790;-77.084;2023-06-22T10:37:10;101604.12;;;22.09;45.85
47809;BME280;33573;38.790;-77.084;2023-06-22T10:39:35;101602.14;;;21.82;46.01
47809;BME280;33573;38.790;-77.084;2023-06-22T10:42:01;101604.21;;;21.87;46.22
47809;BME280;33573;38.790;-77.084;2023-06-22T10:44:26;101603.58;;;22.01;46.41
47809;BME280;33573;38.790;-77.084;2023-06-22T10:46:52;101604.61;;;21.55;46.67
47809;BME280;33573;38.790;-77.084;2023-06-22T10:49:17;101606.81;;;21.57;46.57
47809;BME280;33573;38.790;-77.084;2023-06-22T10:51:42;101607.29;;;21.89;45.93
47809;BME280;33573;38.790;-77.084;2023-06-22T10:54:08;101616.29;;;22.62;45.14
47809;BME280;33573;38.790;-77.084;2023-06-22T10:56:33;101623.26;;;22.11;45.57
47809;BME280;33573;38.790;-77.084;2023-06-22T10:58:58;101625.56;;;22.27;45.32
47809;BME280;33573;38.790;-77.084;2023-06-22T11:01:24;101626.37;;;22.39;45.37
47809;BME280;33573;38.790;-77.084;2023-06-22T11:03:49;101634.06;;;22.08;46.30
47809;BME280;33573;38.790;-77.084;2023-06-22T11:06:15;101632.73;;;21.86;46.38
47809;BME280;33573;38.790;-77.084;2023-06-22T11:08:40;101634.17;;;21.69;46.77
47809;BME280;33573;38.790;-77.084;2023-06-22T11:11:05;101637.68;;;21.68;46.71
47809;BME280;33573;38.790;-77.084;2023-06-22T11:13:31;101640.18;;;22.35;46.44
47809;BME280;33573;38.790;-77.084;2023-06-22T11:15:56;101642.12;;;21.89;46.98
47809;BME280;33573;38.790;-77.084;2023-06-22T11:18:22;101633.98;;;21.95;47.02
47809;BME280;33573;38.790;-77.084;2023-06-22T11:20:47;101634.44;;;21.78;46.64
47809;BME280;33573;38.790;-77.084;2023-06-22T11:23:12;101632.06;;;21.99;46.74
47809;BME280;33573;38.790;-77.084;2023-06-22T11:25:38;101631.74;;;21.99;46.21
47809;BME280;33573;38.790;-77.084;2023-06-22T11:28:03;101630.60;;;22.23;46.45
47809;BME280;33573;38.790;-77.084;2023-06-22T11:30:28;101624.44;;;21.95;46.54
47809;BME280;33573;38.790;-77.084;2023-06-22T11:32:54;101620.27;;;21.94;46.64
47809;BME280;33573;38.790;-77.084;2023-06-22T11:35:19;101620.02;;;21.59;46.89
47809;BME280;33573;38.790;-77.084;2023-06-22T11:37:45;101623.48;;;21.75;46.44
47809;BME280;33573;38.790;-77.084;2023-06-22T11:40:11;101624.45;;;22.01;46.80
47809;BME280;33573;38.790;-77.084;2023-06-22T11:42:35;101627.62;;;21.99;46.26
47809;BME280;33573;38.790;-77.084;2023-06-22T11:45:01;101633.70;;;22.29;45.87
47809;BME280;33573;38.790;-77.084;2023-06-22T11:47:26;101634.97;;;21.96;47.33
47809;BME280;33573;38.790;-77.084;2023-06-22T11:49:52;101635.83;;;21.13;49.20
47809;BME280;33573;38.790;-77.084;2023-06-22T11:52:17;101636.99;;;21.36;48.15
47809;BME280;33573;38.790;-77.084;2023-06-22T11:54:42;101634.45;;;21.20;48.28
47809;BME280;33573;38.790;-77.084;2023-06-22T11:57:08;101642.76;;;21.91;47.82
47809;BME280;33573;38.790;-77.084;2023-06-22T11:59:33;101645.04;;;21.82;47.33
47809;BME280;33573;38.790;-77.084;2023-06-22T12:01:59;101645.97;;;21.84;47.40
47809;BME280;33573;38.790;-77.084;2023-06-22T12:04:24;101652.44;;;21.91;47.39
47809;BME280;33573;38.790;-77.084;2023-06-22T12:06:49;101653.81;;;22.08;47.80
47809;BME280;33573;38.790;-77.084;2023-06-22T12:09:15;101658.56;;;21.59;47.76
47809;BME280;33573;38.790;-77.084;2023-06-22T12:11:40;101662.66;;;21.58;47.62
47809;BME280;33573;38.790;-77.084;2023-06-22T12:14:05;101665.40;;;22.28;46.85
47809;BME280;33573;38.790;-77.084;2023-06-22T12:16:30;101670.16;;;21.86;46.71
47809;BME280;33573;38.790;-77.084;2023-06-22T12:18:56;101675.45;;;21.89;47.25
47809;BME280;33573;38.790;-77.084;2023-06-22T12:21:21;101674.94;;;21.98;47.16